sensor_id;sensor_type;location;lat;lon;timestamp;temperature;humidity
6484;DHT22;3275;52.376;9.694;2024-03-23T06:38:54;8.10;99.90
6484;DHT22;3275;52.376;9.694;2024-03-23T06:41:21;8.10;99.90
6484;DHT22;3275;52.376;9.694;2024-03-23T06:43:46;8.20;99.90
6484;DHT22;3275;52.376;9.694;2024-03-23T06:46:13;8.30;99.90
6484;DHT22;3275;52.376;9.694;2024-03-23T06:48:39;8.20;99.90
6484;DHT22;3275;52.376;9.694;2024-03-23T06:51:05;8.30;99.90
6484;DHT22;3275;52.376;9.694;2024-03-23T06:53:32;8.20;99.90
6484;DHT22;3275;52.376;9.694;2024-03-23T06:55:59;8.20;99.90
6484;DHT22;3275;52.376;9.694;2024-03-23T06:58:26;8.30;99.90
6484;DHT22;3275;52.376;9.694;2024-03-23T07:00:53;8.30;99.90
6484;DHT22;3275;52.376;9.694;2024-03-23T07:03:18;8.40;99.90
6484;DHT22;3275;52.376;9.694;2024-03-23T07:05:45;8.30;99.90
6484;DHT22;3275;52.376;9.694;2024-03-23T07:08:11;8.40;99.90
6484;DHT22;3275;52.376;9.694;2024-03-23T07:10:39;8.30;99.90
6484;DHT22;3275;52.376;9.694;2024-03-23T07:13:06;8.30;99.90
6484;DHT22;3275;52.376;9.694;2024-03-23T07:15:33;8.40;99.90
6484;DHT22;3275;52.376;9.694;2024-03-23T07:17:58;8.40;99.90
6484;DHT22;3275;52.376;9.694;2024-03-23T07:20:25;8.40;99.90
6484;DHT22;3275;52.376;9.694;2024-03-23T07:22:51;8.40;99.90
6484;DHT22;3275;52.376;9.694;2024-03-23T07:25:17;8.50;99.90
6484;DHT22;3275;52.376;9.694;2024-03-23T07:27:43;8.40;99.90
6484;DHT22;3275;52.376;9.694;2024-03-23T07:30:11;8.50;99.90
6484;DHT22;3275;52.376;9.694;2024-03-23T07:32:37;8.50;99.90
6484;DHT22;3275;52.376;9.694;2024-03-23T07:35:04;8.50;99.90
6484;DHT22;3275;52.376;9.694;2024-03-23T07:37:31;8.50;99.90
6484;DHT22;3275;52.376;9.694;2024-03-23T07:39:58;8.50;99.90
6484;DHT22;3275;52.376;9.694;2024-03-23T07:42:25;8.60;99.90
6484;DHT22;3275;52.376;9.694;2024-03-23T07:44:52;8.50;99.90
6484;DHT22;3275;52.376;9.694;2024-03-23T07:47:19;8.60;99.90
6484;DHT22;3275;52.376;9.694;2024-03-23T07:49:45;8.60;99.90
6484;DHT22;3275;52.376;9.694;2024-03-23T07:52:11;8.60;99.90
6484;DHT22;3275;52.376;9.694;2024-03-23T07:54:38;8.50;99.90
6484;DHT22;3275;52.376;9.694;2024-03-23T07:57:05;8.50;99.90
6484;DHT22;3275;52.376;9.694;2024-03-23T07:59:31;8.60;99.90
6484;DHT22;3275;52.376;9.694;2024-03-23T08:01:59;8.50;99.90
6484;DHT22;3275;52.376;9.694;2024-03-23T08:04:27;8.60;99.90
6484;DHT22;3275;52.376;9.694;2024-03-23T08:06:53;8.60;99.90
6484;DHT22;3275;52.376;9.694;2024-03-23T08:09:20;8.60;99.90
6484;DHT22;3275;52.376;9.694;2024-03-23T08:11:47;8.60;99.90
6484;DHT22;3275;52.376;9.694;2024-03-23T08:14:14;8.50;99.90
6484;DHT22;3275;52.376;9.694;2024-03-23T08:16:40;8.60;99.90
6484;DHT22;3275;52.376;9.694;2024-03-23T08:19:07;8.50;99.90
6484;DHT22;3275;52.376;9.694;2024-03-23T08:21:35;8.50;99.90
6484;DHT22;3275;52.376;9.694;2024-03-23T08:24:02;8.50;99.90
6484;DHT22;3275;52.376;9.694;2024-03-23T08:26:28;8.40;99.90
6484;DHT22;3275;52.376;9.694;2024-03-23T08:28:55;8.30;99.90
6484;DHT22;3275;52.376;9.694;2024-03-23T08:31:20;8.70;99.90
6484;DHT22;3275;52.376;9.694;2024-03-23T08:33:47;8.70;99.90
6484;DHT22;3275;52.376;9.694;2024-03-23T08:36:13;8.80;99.90
6484;DHT22;3275;52.376;9.694;2024-03-23T08:38:41;8.80;99.90
6484;DHT22;3275;52.376;9.694;2024-03-23T08:41:08;8.90;99.90
6484;DHT22;3275;52.376;9.694;2024-03-23T08:43:36;8.90;99.90
6484;DHT22;3275;52.376;9.694;2024-03-23T08:46:06;9.10;99.90
6484;DHT22;3275;52.376;9.694;2024-03-23T08:48:35;9.10;99.90
6484;DHT22;3275;52.376;9.694;2024-03-23T08:51:01;9.00;99.90
6484;DHT22;3275;52.376;9.694;2024-03-23T08:53:29;9.00;99.90
6484;DHT22;3275;52.376;9.694;2024-03-23T08:55:57;9.20;99.90
6484;DHT22;3275;52.376;9.694;2024-03-23T08:58:25;9.30;99.90
6484;DHT22;3275;52.376;9.694;2024-03-23T09:00:50;9.30;99.90
6484;DHT22;3275;52.376;9.694;2024-03-23T09:03:17;9.10;99.90
6484;DHT22;3275;52.376;9.694;2024-03-23T09:05:43;9.00;99.90
6484;DHT22;3275;52.376;9.694;2024-03-23T09:08:09;9.00;99.90
6484;DHT22;3275;52.376;9.694;2024-03-23T09:10:38;9.00;99.90
6484;DHT22;3275;52.376;9.694;2024-03-23T09:13:07;9.00;99.90
6484;DHT22;3275;52.376;9.694;2024-03-23T09:15:34;9.10;99.90
6484;DHT22;3275;52.376;9.694;2024-03-23T09:18:01;9.00;99.90
6484;DHT22;3275;52.376;9.694;2024-03-23T09:20:27;9.00;99.90
6484;DHT22;3275;52.376;9.694;2024-03-23T09:22:54;9.10;99.90
6484;DHT22;3275;52.376;9.694;2024-03-23T09:25:19;9.20;99.90
6484;DHT22;3275;52.376;9.694;2024-03-23T09:27:46;9.40;99.90
6484;DHT22;3275;52.376;9.694;2024-03-23T09:30:14;9.50;99.90
6484;DHT22;3275;52.376;9.694;2024-03-23T09:32:42;9.50;99.90
6484;DHT22;3275;52.376;9.694;2024-03-23T09:35:07;9.50;99.90
6484;DHT22;3275;52.376;9.694;2024-03-23T09:37:34;9.40;99.90
6484;DHT22;3275;52.376;9.694;2024-03-23T09:40:00;9.40;99.90
6484;DHT22;3275;52.376;9.694;2024-03-23T09:42:26;9.30;99.90
6484;DHT22;3275;52.376;9.694;2024-03-23T09:44:53;9.30;99.90
6484;DHT22;3275;52.376;9.694;2024-03-23T09:47:21;9.40;99.90
6484;DHT22;3275;52.376;9.694;2024-03-23T09:49:47;9.50;99.90
6484;DHT22;3275;52.376;9.694;2024-03-23T09:52:14;9.70;99.90
6484;DHT22;3275;52.376;9.694;2024-03-23T09:54:40;9.70;99.90
6484;DHT22;3275;52.376;9.694;2024-03-23T09:57:06;9.80;99.90
6484;DHT22;3275;52.376;9.694;2024-03-23T09:59:33;9.90;99.90
6484;DHT22;3275;52.376;9.694;2024-03-23T10:02:01;10.00;99.90
6484;DHT22;3275;52.376;9.694;2024-03-23T10:04:37;9.90;99.90
6484;DHT22;3275;52.376;9.694;2024-03-23T10:07:11;10.00;99.90
6484;DHT22;3275;52.376;9.694;2024-03-23T10:09:36;10.00;99.90
6484;DHT22;3275;52.376;9.694;2024-03-23T10:12:09;9.90;99.90
6484;DHT22;3275;52.376;9.694;2024-03-23T10:14:34;9.80;99.90
6484;DHT22;3275;52.376;9.694;2024-03-23T10:17:12;9.80;99.90
6484;DHT22;3275;52.376;9.694;2024-03-23T10:19:40;9.80;99.90
6484;DHT22;3275;52.376;9.694;2024-03-23T10:22:09;9.70;99.90
6484;DHT22;3275;52.376;9.694;2024-03-23T10:24:35;9.80;99.90
6484;DHT22;3275;52.376;9.694;2024-03-23T10:27:01;10.00;99.90
6484;DHT22;3275;52.376;9.694;2024-03-23T10:29:27;10.00;98.80
6484;DHT22;3275;52.376;9.694;2024-03-23T10:31:54;10.00;98.20
6484;DHT22;3275;52.376;9.694;2024-03-23T10:34:25;10.00;99.20
6484;DHT22;3275;52.376;9.694;2024-03-23T10:36:54;10.10;97.60
6484;DHT22;3275;52.376;9.694;2024-03-23T10:39:22;10.30;98.00
6484;DHT22;3275;52.376;9.694;2024-03-23T10:41:49;10.40;98.00
6484;DHT22;3275;52.376;9.694;2024-03-23T10:44:17;10.30;97.60
6484;DHT22;3275;52.376;9.694;2024-03-23T10:46:45;10.20;97.60
6484;DHT22;3275;52.376;9.694;2024-03-23T10:49:12;9.60;98.50
6484;DHT22;3275;52.376;9.694;2024-03-23T10:51:38;9.20;99.70
6484;DHT22;3275;52.376;9.694;2024-03-23T10:54:06;9.00;99.90
6484;DHT22;3275;52.376;9.694;2024-03-23T10:56:34;8.80;99.90
6484;DHT22;3275;52.376;9.694;2024-03-23T10:59:02;8.50;99.90
6484;DHT22;3275;52.376;9.694;2024-03-23T11:01:29;8.40;99.90
6484;DHT22;3275;52.376;9.694;2024-03-23T11:03:55;8.20;99.90
6484;DHT22;3275;52.376;9.694;2024-03-23T11:06:35;8.30;99.90
6484;DHT22;3275;52.376;9.694;2024-03-23T11:09:02;8.40;99.90
6484;DHT22;3275;52.376;9.694;2024-03-23T11:11:29;8.60;99.90
6484;DHT22;3275;52.376;9.694;2024-03-23T11:13:58;8.70;99.90
6484;DHT22;3275;52.376;9.694;2024-03-23T11:16:25;8.70;99.90
6484;DHT22;3275;52.376;9.694;2024-03-23T11:18:53;8.60;99.90
6484;DHT22;3275;52.376;9.694;2024-03-23T11:21:52;8.40;99.90
6484;DHT22;3275;52.376;9.694;2024-03-23T11:24:19;8.30;99.90
6484;DHT22;3275;52.376;9.694;2024-03-23T11:26:47;8.30;99.90
6484;DHT22;3275;52.376;9.694;2024-03-23T11:29:16;8.20;99.90
6484;DHT22;3275;52.376;9.694;2024-03-23T11:31:46;8.30;99.90
6484;DHT22;3275;52.376;9.694;2024-03-23T11:34:13;8.40;99.90
6484;DHT22;3275;52.376;9.694;2024-03-23T11:36:40;8.70;99.90
6484;DHT22;3275;52.376;9.694;2024-03-23T11:39:13;8.90;99.90
6484;DHT22;3275;52.376;9.694;2024-03-23T11:41:47;9.10;99.90
6484;DHT22;3275;52.376;9.694;2024-03-23T11:44:20;9.20;99.90
6484;DHT22;3275;52.376;9.694;2024-03-23T11:46:48;9.30;99.90
6484;DHT22;3275;52.376;9.694;2024-03-23T11:49:22;9.20;99.90
6484;DHT22;3275;52.376;9.694;2024-03-23T11:51:48;8.90;99.90
6484;DHT22;3275;52.376;9.694;2024-03-23T11:54:14;8.60;99.90
6484;DHT22;3275;52.376;9.694;2024-03-23T11:56:40;8.40;99.90
6484;DHT22;3275;52.376;9.694;2024-03-23T11:59:08;8.40;99.90
6484;DHT22;3275;52.376;9.694;2024-03-23T12:01:34;8.40;99.90
6484;DHT22;3275;52.376;9.694;2024-03-23T12:04:00;8.40;99.90
6484;DHT22;3275;52.376;9.694;2024-03-23T12:06:26;8.30;99.90
6484;DHT22;3275;52.376;9.694;2024-03-23T12:08:52;8.30;99.90
6484;DHT22;3275;52.376;9.694;2024-03-23T12:11:18;8.20;99.90
6484;DHT22;3275;52.376;9.694;2024-03-23T12:13:46;8.20;99.90
6484;DHT22;3275;52.376;9.694;2024-03-23T12:16:14;8.30;99.90
6484;DHT22;3275;52.376;9.694;2024-03-23T12:18:42;8.30;99.90
6484;DHT22;3275;52.376;9.694;2024-03-23T12:21:08;8.30;99.90
6484;DHT22;3275;52.376;9.694;2024-03-23T12:23:35;8.70;99.90
6484;DHT22;3275;52.376;9.694;2024-03-23T12:26:01;9.30;99.90
6484;DHT22;3275;52.376;9.694;2024-03-23T12:28:28;9.60;99.90
6484;DHT22;3275;52.376;9.694;2024-03-23T12:30:53;9.70;99.90
6484;DHT22;3275;52.376;9.694;2024-03-23T12:33:21;9.80;99.90
6484;DHT22;3275;52.376;9.694;2024-03-23T12:35:47;9.70;99.90
6484;DHT22;3275;52.376;9.694;2024-03-23T12:38:14;9.60;99.90
6484;DHT22;3275;52.376;9.694;2024-03-23T12:40:39;9.40;99.90
6484;DHT22;3275;52.376;9.694;2024-03-23T12:43:06;9.30;99.90
6484;DHT22;3275;52.376;9.694;2024-03-23T12:45:33;9.20;99.90
6484;DHT22;3275;52.376;9.694;2024-03-23T12:47:59;9.30;99.90
6484;DHT22;3275;52.376;9.694;2024-03-23T12:50:26;9.30;99.90
6484;DHT22;3275;52.376;9.694;2024-03-23T12:52:53;9.20;99.90
6484;DHT22;3275;52.376;9.694;2024-03-23T12:55:19;9.00;99.70
6484;DHT22;3275;52.376;9.694;2024-03-23T12:57:46;9.00;99.90
6484;DHT22;3275;52.376;9.694;2024-03-23T13:00:12;8.80;99.90
6484;DHT22;3275;52.376;9.694;2024-03-23T13:02:41;8.70;99.90
6484;DHT22;3275;52.376;9.694;2024-03-23T13:05:07;8.80;99.90
6484;DHT22;3275;52.376;9.694;2024-03-23T13:07:36;8.90;99.90
6484;DHT22;3275;52.376;9.694;2024-03-23T13:10:04;8.90;99.90
6484;DHT22;3275;52.376;9.694;2024-03-23T13:12:31;9.10;99.90
6484;DHT22;3275;52.376;9.694;2024-03-23T13:14:58;10.10;99.90
6484;DHT22;3275;52.376;9.694;2024-03-23T13:17:25;12.20;98.30
6484;DHT22;3275;52.376;9.694;2024-03-23T13:19:52;14.40;97.00
6484;DHT22;3275;52.376;9.694;2024-03-23T13:22:18;16.20;94.80
6484;DHT22;3275;52.376;9.694;2024-03-23T13:24:45;17.70;92.70
6484;DHT22;3275;52.376;9.694;2024-03-23T13:27:12;19.20;88.80
6484;DHT22;3275;52.376;9.694;2024-03-23T13:29:38;20.20;82.80
6484;DHT22;3275;52.376;9.694;2024-03-23T13:32:05;20.90;81.40
6484;DHT22;3275;52.376;9.694;2024-03-23T13:34:31;21.60;74.60
6484;DHT22;3275;52.376;9.694;2024-03-23T13:36:59;21.10;76.30
6484;DHT22;3275;52.376;9.694;2024-03-23T13:39:25;20.70;75.10
6484;DHT22;3275;52.376;9.694;2024-03-23T13:41:54;20.60;72.10
6484;DHT22;3275;52.376;9.694;2024-03-23T13:44:20;20.10;76.00
6484;DHT22;3275;52.376;9.694;2024-03-23T13:46:47;19.60;75.20
6484;DHT22;3275;52.376;9.694;2024-03-23T13:49:26;19.70;73.10
6484;DHT22;3275;52.376;9.694;2024-03-23T13:51:53;20.60;75.60
6484;DHT22;3275;52.376;9.694;2024-03-23T13:54:20;21.00;75.00
6484;DHT22;3275;52.376;9.694;2024-03-23T13:56:48;21.60;71.40
6484;DHT22;3275;52.376;9.694;2024-03-23T13:59:15;20.80;72.70
6484;DHT22;3275;52.376;9.694;2024-03-23T14:01:42;19.30;69.60
6484;DHT22;3275;52.376;9.694;2024-03-23T14:04:08;18.40;72.90
6484;DHT22;3275;52.376;9.694;2024-03-23T14:06:35;19.10;73.30
6484;DHT22;3275;52.376;9.694;2024-03-23T14:09:00;19.10;68.70
6484;DHT22;3275;52.376;9.694;2024-03-23T14:11:29;17.50;74.20
6484;DHT22;3275;52.376;9.694;2024-03-23T14:13:54;16.10;74.60
6484;DHT22;3275;52.376;9.694;2024-03-23T14:16:22;15.20;79.80
6484;DHT22;3275;52.376;9.694;2024-03-23T14:18:48;14.20;79.00
6484;DHT22;3275;52.376;9.694;2024-03-23T14:21:14;13.60;82.20
6484;DHT22;3275;52.376;9.694;2024-03-23T14:23:40;13.10;86.10
6484;DHT22;3275;52.376;9.694;2024-03-23T14:26:07;13.10;86.10
6484;DHT22;3275;52.376;9.694;2024-03-23T14:28:33;12.20;85.60
6484;DHT22;3275;52.376;9.694;2024-03-23T14:31:00;11.90;84.20
6484;DHT22;3275;52.376;9.694;2024-03-23T14:33:27;11.50;87.20
6484;DHT22;3275;52.376;9.694;2024-03-23T14:35:54;11.40;88.80
6484;DHT22;3275;52.376;9.694;2024-03-23T14:38:21;11.20;89.40
6484;DHT22;3275;52.376;9.694;2024-03-23T14:40:47;10.80;90.10
6484;DHT22;3275;52.376;9.694;2024-03-23T14:43:13;10.50;89.80
6484;DHT22;3275;52.376;9.694;2024-03-23T14:48:30;10.00;90.40
6484;DHT22;3275;52.376;9.694;2024-03-23T14:50:58;9.90;91.30
6484;DHT22;3275;52.376;9.694;2024-03-23T14:53:24;9.80;91.70
6484;DHT22;3275;52.376;9.694;2024-03-23T14:55:53;9.90;91.20
6484;DHT22;3275;52.376;9.694;2024-03-23T14:58:19;9.80;91.20
6484;DHT22;3275;52.376;9.694;2024-03-23T15:00:46;10.10;91.00
6484;DHT22;3275;52.376;9.694;2024-03-23T15:03:12;10.10;90.70
6484;DHT22;3275;52.376;9.694;2024-03-23T15:05:40;10.40;91.50
6484;DHT22;3275;52.376;9.694;2024-03-23T15:08:06;11.10;90.90
6484;DHT22;3275;52.376;9.694;2024-03-23T15:10:33;12.00;90.40
6484;DHT22;3275;52.376;9.694;2024-03-23T15:12:59;12.60;88.30
6484;DHT22;3275;52.376;9.694;2024-03-23T15:15:25;13.70;86.60
6484;DHT22;3275;52.376;9.694;2024-03-23T15:17:51;14.20;82.60
6484;DHT22;3275;52.376;9.694;2024-03-23T15:20:18;14.00;82.50
6484;DHT22;3275;52.376;9.694;2024-03-23T15:22:45;13.60;84.10
6484;DHT22;3275;52.376;9.694;2024-03-23T15:25:11;13.00;85.20
6484;DHT22;3275;52.376;9.694;2024-03-23T15:27:38;12.00;86.80
6484;DHT22;3275;52.376;9.694;2024-03-23T15:30:06;11.40;87.60
6484;DHT22;3275;52.376;9.694;2024-03-23T15:32:32;10.90;89.80
6484;DHT22;3275;52.376;9.694;2024-03-23T15:34:59;10.70;90.20
6484;DHT22;3275;52.376;9.694;2024-03-23T15:37:24;10.50;90.40
6484;DHT22;3275;52.376;9.694;2024-03-23T15:39:52;10.30;91.60
6484;DHT22;3275;52.376;9.694;2024-03-23T15:42:18;10.20;91.40
6484;DHT22;3275;52.376;9.694;2024-03-23T15:44:44;10.10;92.20
6484;DHT22;3275;52.376;9.694;2024-03-23T15:47:11;9.80;93.70
6484;DHT22;3275;52.376;9.694;2024-03-23T15:49:38;9.70;93.60
6484;DHT22;3275;52.376;9.694;2024-03-23T15:52:04;9.20;96.70
6484;DHT22;3275;52.376;9.694;2024-03-23T15:54:30;7.90;99.90
6484;DHT22;3275;52.376;9.694;2024-03-23T15:56:57;6.90;99.90
6484;DHT22;3275;52.376;9.694;2024-03-23T15:59:24;6.50;99.90
6484;DHT22;3275;52.376;9.694;2024-03-23T16:01:49;6.60;99.90
6484;DHT22;3275;52.376;9.694;2024-03-23T16:04:16;6.70;99.90
6484;DHT22;3275;52.376;9.694;2024-03-23T16:06:42;6.90;99.90
6484;DHT22;3275;52.376;9.694;2024-03-23T16:09:09;7.10;99.90
6484;DHT22;3275;52.376;9.694;2024-03-23T16:11:35;7.90;99.90
6484;DHT22;3275;52.376;9.694;2024-03-23T16:14:03;8.80;99.90
6484;DHT22;3275;52.376;9.694;2024-03-23T16:16:28;9.80;99.90
6484;DHT22;3275;52.376;9.694;2024-03-23T16:18:55;10.30;99.90
6484;DHT22;3275;52.376;9.694;2024-03-23T16:21:21;10.80;99.90
6484;DHT22;3275;52.376;9.694;2024-03-23T16:23:47;10.50;99.90
6484;DHT22;3275;52.376;9.694;2024-03-23T16:26:13;10.90;99.90
6484;DHT22;3275;52.376;9.694;2024-03-23T16:28:42;11.30;99.90
6484;DHT22;3275;52.376;9.694;2024-03-23T16:31:09;11.30;99.90
6484;DHT22;3275;52.376;9.694;2024-03-23T16:33:37;11.00;99.90
6484;DHT22;3275;52.376;9.694;2024-03-23T16:36:04;11.10;99.90
6484;DHT22;3275;52.376;9.694;2024-03-23T16:38:32;11.20;99.90
6484;DHT22;3275;52.376;9.694;2024-03-23T16:40:59;11.30;99.90
6484;DHT22;3275;52.376;9.694;2024-03-23T16:43:27;10.80;99.90
6484;DHT22;3275;52.376;9.694;2024-03-23T16:45:54;10.20;99.90
6484;DHT22;3275;52.376;9.694;2024-03-23T16:48:22;9.80;99.90
6484;DHT22;3275;52.376;9.694;2024-03-23T16:50:48;9.20;99.90
6484;DHT22;3275;52.376;9.694;2024-03-23T16:53:15;8.90;99.90
6484;DHT22;3275;52.376;9.694;2024-03-23T16:55:40;8.80;99.90
6484;DHT22;3275;52.376;9.694;2024-03-23T16:58:07;8.60;99.90
6484;DHT22;3275;52.376;9.694;2024-03-23T17:00:33;8.40;99.90
6484;DHT22;3275;52.376;9.694;2024-03-23T17:03:00;8.30;99.90
6484;DHT22;3275;52.376;9.694;2024-03-23T17:05:27;8.20;99.90
6484;DHT22;3275;52.376;9.694;2024-03-23T17:07:54;8.20;99.90
6484;DHT22;3275;52.376;9.694;2024-03-23T17:10:22;8.10;99.90
6484;DHT22;3275;52.376;9.694;2024-03-23T17:12:48;8.20;99.90
6484;DHT22;3275;52.376;9.694;2024-03-23T17:15:14;8.10;99.90
6484;DHT22;3275;52.376;9.694;2024-03-23T17:17:47;8.00;99.90
6484;DHT22;3275;52.376;9.694;2024-03-23T17:20:13;7.90;99.90
6484;DHT22;3275;52.376;9.694;2024-03-23T17:22:42;7.90;99.90
6484;DHT22;3275;52.376;9.694;2024-03-23T17:25:08;7.80;99.90
6484;DHT22;3275;52.376;9.694;2024-03-23T17:27:36;7.90;99.90
6484;DHT22;3275;52.376;9.694;2024-03-23T17:30:02;7.80;99.90
6484;DHT22;3275;52.376;9.694;2024-03-23T17:32:29;7.80;99.90
6484;DHT22;3275;52.376;9.694;2024-03-23T17:34:55;7.80;99.90
6484;DHT22;3275;52.376;9.694;2024-03-23T17:37:22;7.80;99.90
6484;DHT22;3275;52.376;9.694;2024-03-23T17:39:49;7.70;99.90
6484;DHT22;3275;52.376;9.694;2024-03-23T17:42:16;7.70;99.90
6484;DHT22;3275;52.376;9.694;2024-03-23T17:44:41;7.70;99.90
6484;DHT22;3275;52.376;9.694;2024-03-23T17:47:08;7.70;99.90
6484;DHT22;3275;52.376;9.694;2024-03-23T17:49:33;7.70;99.90
6484;DHT22;3275;52.376;9.694;2024-03-23T17:52:08;7.70;99.90
6484;DHT22;3275;52.376;9.694;2024-03-23T17:54:36;7.70;99.90
6484;DHT22;3275;52.376;9.694;2024-03-23T17:57:04;7.70;99.90
6484;DHT22;3275;52.376;9.694;2024-03-23T17:59:30;7.80;99.90
6484;DHT22;3275;52.376;9.694;2024-03-23T18:01:57;7.80;99.90
6484;DHT22;3275;52.376;9.694;2024-03-23T18:04:24;7.80;99.90
6484;DHT22;3275;52.376;9.694;2024-03-23T18:06:50;7.90;99.90
6484;DHT22;3275;52.376;9.694;2024-03-23T18:09:16;7.90;99.90
6484;DHT22;3275;52.376;9.694;2024-03-23T18:11:43;8.00;99.90
6484;DHT22;3275;52.376;9.694;2024-03-23T18:14:10;8.00;99.90
6484;DHT22;3275;52.376;9.694;2024-03-23T18:16:36;7.90;99.90
6484;DHT22;3275;52.376;9.694;2024-03-23T18:19:02;7.80;99.90
6484;DHT22;3275;52.376;9.694;2024-03-23T18:21:30;7.60;99.90
6484;DHT22;3275;52.376;9.694;2024-03-23T18:23:55;7.30;99.90
6484;DHT22;3275;52.376;9.694;2024-03-23T18:26:22;7.30;99.90
6484;DHT22;3275;52.376;9.694;2024-03-23T18:28:48;7.20;99.90
6484;DHT22;3275;52.376;9.694;2024-03-23T18:31:18;7.10;99.90
6484;DHT22;3275;52.376;9.694;2024-03-23T18:33:45;7.00;99.90
6484;DHT22;3275;52.376;9.694;2024-03-23T18:36:12;7.00;99.90
6484;DHT22;3275;52.376;9.694;2024-03-23T18:38:38;7.00;99.90
6484;DHT22;3275;52.376;9.694;2024-03-23T18:41:05;7.00;99.90
6484;DHT22;3275;52.376;9.694;2024-03-23T18:43:30;6.90;99.90
6484;DHT22;3275;52.376;9.694;2024-03-23T18:45:58;6.80;99.90
6484;DHT22;3275;52.376;9.694;2024-03-23T18:48:25;6.80;99.90
6484;DHT22;3275;52.376;9.694;2024-03-23T18:50:52;6.80;99.90
6484;DHT22;3275;52.376;9.694;2024-03-23T18:53:17;6.90;99.90
6484;DHT22;3275;52.376;9.694;2024-03-23T18:55:51;7.00;99.90
6484;DHT22;3275;52.376;9.694;2024-03-23T18:58:17;7.00;99.90
6484;DHT22;3275;52.376;9.694;2024-03-23T19:00:44;7.10;99.90
6484;DHT22;3275;52.376;9.694;2024-03-23T19:03:10;7.00;99.90
6484;DHT22;3275;52.376;9.694;2024-03-23T19:05:38;6.90;99.90
6484;DHT22;3275;52.376;9.694;2024-03-23T19:08:04;6.90;99.90
6484;DHT22;3275;52.376;9.694;2024-03-23T19:10:31;6.90;99.90
6484;DHT22;3275;52.376;9.694;2024-03-23T19:12:57;6.90;99.90
6484;DHT22;3275;52.376;9.694;2024-03-23T19:15:23;6.70;99.90
6484;DHT22;3275;52.376;9.694;2024-03-23T19:17:49;6.90;99.90
6484;DHT22;3275;52.376;9.694;2024-03-23T19:20:16;6.90;99.90
6484;DHT22;3275;52.376;9.694;2024-03-23T19:22:43;6.90;99.90
6484;DHT22;3275;52.376;9.694;2024-03-23T19:25:10;6.80;99.90
